createdAt,value
2019-01-18T00:04:43.173Z,14.9
2019-01-18T00:10:10.725Z,14
2019-01-18T00:15:34.348Z,12.9
2019-01-18T00:20:57.732Z,13.2
2019-01-18T00:26:20.507Z,8.8
2019-01-18T00:31:45.214Z,14.9
2019-01-18T00:37:08.053Z,10.9
2019-01-18T00:42:32.217Z,14.2
2019-01-18T00:47:55.046Z,11.8
2019-01-18T00:53:19.718Z,14.8
2019-01-18T00:58:43.190Z,12.2
2019-01-18T01:04:08.856Z,10.5
2019-01-18T01:09:35.247Z,14.8
2019-01-18T01:14:58.084Z,13.1
2019-01-18T01:20:23.729Z,14.8
2019-01-18T01:25:48.206Z,10.4
2019-01-18T01:31:11.968Z,12.3
2019-01-18T01:36:35.887Z,14.9
2019-01-18T01:42:00.221Z,16
2019-01-18T01:47:28.210Z,17.9
2019-01-18T01:52:51.705Z,15.1
2019-01-18T01:58:16.053Z,17.6
2019-01-18T02:03:40.757Z,22.6
2019-01-18T02:09:08.404Z,25.700001
2019-01-18T02:14:31.989Z,18.4
2019-01-18T02:19:55.842Z,19.700001
2019-01-18T02:25:18.672Z,25.299999
2019-01-18T02:30:44.211Z,18.1
2019-01-18T02:36:06.910Z,14.6
2019-01-18T02:41:34.208Z,16.200001
2019-01-18T02:46:58.729Z,13.5
2019-01-18T02:52:22.332Z,13.6
2019-01-18T02:57:46.142Z,16.1
2019-01-18T03:03:09.286Z,15.7
2019-01-18T03:08:32.948Z,14.2
2019-01-18T03:13:57.821Z,21.5
2019-01-18T03:19:21.543Z,15.8
2019-01-18T03:24:46.202Z,15.2
2019-01-18T03:30:18.423Z,20.200001
2019-01-18T03:35:35.078Z,20.9
2019-01-18T03:41:00.242Z,19.5
2019-01-18T03:46:23.680Z,20.9
2019-01-18T03:51:47.091Z,15.5
2019-01-18T03:57:10.761Z,13.8
2019-01-18T04:02:34.188Z,16.299999
2019-01-18T04:07:58.730Z,22.6
2019-01-18T04:13:23.004Z,20.1
2019-01-18T04:18:47.342Z,30.5
2019-01-18T04:24:11.546Z,37.700001
2019-01-18T04:29:37.211Z,78.300003
2019-01-18T04:35:00.135Z,272.39999
2019-01-18T04:40:23.084Z,222.8
2019-01-18T04:45:47.917Z,215.8
2019-01-18T04:51:13.694Z,214.69999
2019-01-18T04:56:41.802Z,462.79998
2019-01-18T05:02:09.884Z,373
2019-01-18T05:07:36.321Z,584.40002
2019-01-18T05:13:00.661Z,518.29998
2019-01-18T05:18:28.175Z,483.79998
2019-01-18T05:23:51.806Z,555.29998
2019-01-18T05:29:16.190Z,436
2019-01-18T05:34:39.457Z,465.70001
2019-01-18T05:40:02.499Z,533.59997
2019-01-18T05:45:25.555Z,424.6
2019-01-18T05:50:48.640Z,510.79998
2019-01-18T05:56:22.001Z,500
2019-01-18T06:01:54.636Z,412.89999
2019-01-18T06:07:17.681Z,317.1
2019-01-18T06:12:40.764Z,231.19999
2019-01-18T06:18:03.953Z,131.8
2019-01-18T06:23:27.006Z,160.89999
2019-01-18T06:28:50.222Z,223.6
2019-01-18T06:34:13.364Z,166.8
2019-01-18T06:39:36.383Z,234
2019-01-18T06:44:59.327Z,180.3
2019-01-18T06:50:22.135Z,239.3
2019-01-18T06:55:44.908Z,185.69999
2019-01-18T07:01:08.523Z,416.6
2019-01-18T07:06:30.752Z,181.39999
2019-01-18T07:11:53.575Z,363
2019-01-18T07:17:16.808Z,140.6
2019-01-18T07:22:50.391Z,105.09999
2019-01-18T07:28:13.387Z,69.099998
2019-01-18T07:33:36.093Z,106.3
2019-01-18T07:39:00.518Z,104.8
2019-01-18T07:44:23.798Z,57.5
2019-01-18T07:49:47.316Z,57.599998
2019-01-18T07:55:10.278Z,40.099998
2019-01-18T08:00:33.166Z,35.700001
2019-01-18T08:05:56.929Z,35.299999
2019-01-18T08:11:21.289Z,29.799999
2019-01-18T08:16:44.286Z,39.599998
2019-01-18T08:22:07.040Z,33.799999
2019-01-18T08:27:30.274Z,28.1
2019-01-18T08:32:55.920Z,26.6
2019-01-18T08:38:19.694Z,33.799999
2019-01-18T08:43:42.498Z,28.6
2019-01-18T08:49:06.019Z,25.1
2019-01-18T08:54:30.155Z,30.9
2019-01-18T08:59:54.366Z,38.099998
2019-01-18T09:05:18.734Z,26.4
2019-01-18T09:10:41.830Z,28.4
2019-01-18T09:16:04.855Z,25.799999
2019-01-18T09:21:27.883Z,26.5
2019-01-18T09:26:50.700Z,26.700001
2019-01-18T09:32:15.249Z,29.700001
2019-01-18T09:37:38.465Z,23.799999
2019-01-18T09:43:01.748Z,20
2019-01-18T09:48:24.379Z,17.299999
2019-01-18T09:53:48.554Z,15.7
2019-01-18T09:59:11.927Z,16.4
2019-01-18T10:04:34.703Z,15.4
2019-01-18T10:09:57.439Z,10.7
2019-01-18T10:15:20.070Z,12.5
2019-01-18T10:20:44.029Z,11.3
2019-01-18T10:26:08.087Z,9.2
2019-01-18T10:31:31.735Z,10.6
2019-01-18T10:36:54.907Z,6.7
2019-01-18T10:42:17.158Z,7.2
2019-01-18T10:47:40.859Z,7.4
2019-01-18T10:53:07.680Z,6.8
2019-01-18T10:58:30.489Z,5.6
2019-01-18T11:03:53.647Z,8.9
2019-01-18T11:09:16.480Z,6.7
2019-01-18T11:14:39.683Z,6.5
2019-01-18T11:20:02.383Z,5.5
2019-01-18T11:25:31.716Z,9.6
2019-01-18T11:30:51.379Z,9.2
2019-01-18T11:36:14.365Z,8.3
2019-01-18T11:41:37.698Z,9.8
2019-01-18T11:47:01.351Z,5.1
2019-01-18T11:52:24.099Z,4
2019-01-18T11:57:47.115Z,3.7
2019-01-18T12:03:10.159Z,4.1
2019-01-18T12:08:32.998Z,4.8
2019-01-18T12:13:55.666Z,4.6
2019-01-18T12:19:18.471Z,3.4
2019-01-18T12:24:41.760Z,4.6
2019-01-18T12:30:04.529Z,3.5
2019-01-18T12:35:28.850Z,4.8
2019-01-18T12:40:53.702Z,6.1
2019-01-18T12:46:18.721Z,4.5
2019-01-18T12:51:41.458Z,3.3
2019-01-18T12:57:04.223Z,2.7
2019-01-18T13:02:35.152Z,4.2
2019-01-18T13:07:51.625Z,4.2
2019-01-18T13:13:14.615Z,3.7
2019-01-18T13:18:37.389Z,4.9
2019-01-18T13:24:00.947Z,5.4
2019-01-18T13:29:23.630Z,4.2
2019-01-18T13:34:47.457Z,4.2
2019-01-18T13:40:10.690Z,4.5
2019-01-18T13:45:34.173Z,3.9
2019-01-18T13:50:56.927Z,4
2019-01-18T13:56:19.641Z,2.9
2019-01-18T14:01:43.192Z,4.4
2019-01-18T14:07:07.689Z,7
2019-01-18T14:12:31.103Z,4.3
2019-01-18T14:17:54.696Z,5.8
2019-01-18T14:23:17.478Z,6.2
2019-01-18T14:28:40.316Z,3.3
2019-01-18T14:34:03.047Z,6.1
2019-01-18T14:39:26.575Z,4.9
2019-01-18T14:44:49.637Z,5.5
2019-01-18T14:50:13.348Z,4.9
2019-01-18T14:55:36.194Z,4.4
2019-01-18T15:00:59.473Z,3.5
2019-01-18T15:06:23.478Z,7.2
2019-01-18T15:11:46.799Z,4.5
2019-01-18T15:17:11.340Z,4.7
2019-01-18T15:22:34.697Z,5.4
2019-01-18T15:27:57.536Z,4.5
2019-01-18T15:33:21.247Z,4.2
2019-01-18T15:38:44.083Z,5.7
2019-01-18T15:44:07.313Z,5.8
2019-01-18T15:49:30.691Z,6.8
2019-01-18T15:54:54.246Z,10.9
2019-01-18T16:00:17.833Z,12.8
2019-01-18T16:05:41.180Z,11.5
2019-01-18T16:11:03.893Z,10
2019-01-18T16:16:30.862Z,10.3
2019-01-18T16:21:53.901Z,10.1
2019-01-18T16:27:24.200Z,10.1
2019-01-18T16:32:46.910Z,11.3
2019-01-18T16:38:10.350Z,12.6
2019-01-18T16:43:34.878Z,10
2019-01-18T16:48:57.735Z,10.3
2019-01-18T16:54:20.449Z,11.1
2019-01-18T16:59:44.165Z,12.3
2019-01-18T17:05:07.062Z,13.6
2019-01-18T17:10:30.690Z,13.7
2019-01-18T17:15:53.371Z,13.2
2019-01-18T17:21:16.851Z,18.6
2019-01-18T17:26:40.339Z,12.9
2019-01-18T17:32:04.300Z,13.1
2019-01-18T17:37:27.616Z,14.9
2019-01-18T17:42:50.635Z,16.9
2019-01-18T17:48:12.627Z,17.700001
2019-01-18T17:53:35.734Z,14.9
2019-01-18T17:58:59.285Z,14.7
2019-01-18T18:04:22.696Z,20.5
2019-01-18T18:09:45.514Z,17.6
2019-01-18T18:15:09.222Z,21.299999
2019-01-18T18:20:33.708Z,20.6
2019-01-18T18:25:57.420Z,22.200001
2019-01-18T18:31:22.187Z,19.200001
2019-01-18T18:36:54.962Z,24.299999
2019-01-18T18:42:28.356Z,19.9
2019-01-18T18:47:50.721Z,21
2019-01-18T18:53:14.899Z,20.5
2019-01-18T18:58:49.144Z,19.200001
2019-01-18T19:04:13.770Z,21
2019-01-18T19:09:38.263Z,25.1
2019-01-18T19:15:02.802Z,21.700001
2019-01-18T19:20:25.887Z,25
2019-01-18T19:25:49.359Z,23.4
2019-01-18T19:31:23.636Z,24.299999
2019-01-18T19:36:46.450Z,23.200001
2019-01-18T19:42:09.194Z,27.4
2019-01-18T19:47:34.171Z,25.1
2019-01-18T19:52:57.805Z,26.200001
2019-01-18T19:58:20.538Z,30.700001
2019-01-18T20:03:43.378Z,28.6
2019-01-18T20:09:06.144Z,30.799999
2019-01-18T20:14:28.809Z,32.900002
2019-01-18T20:19:51.521Z,34
2019-01-18T20:25:14.251Z,36
2019-01-18T20:30:37.238Z,34.400002
2019-01-18T20:36:00.043Z,36
2019-01-18T20:41:24.620Z,35.599998
2019-01-18T20:46:47.487Z,32.099998
2019-01-18T20:52:10.182Z,30.9
2019-01-18T20:57:33.070Z,31.1
2019-01-18T21:02:55.892Z,31.700001
2019-01-18T21:08:20.402Z,30.1
2019-01-18T21:13:43.230Z,31.1
2019-01-18T21:19:06.972Z,35.099998
2019-01-18T21:24:29.805Z,31.1
2019-01-18T21:29:52.466Z,29.200001
2019-01-18T21:35:17.057Z,31.5
2019-01-18T21:40:39.749Z,31.5
2019-01-18T21:46:04.774Z,27
2019-01-18T21:51:31.300Z,32.700001
2019-01-18T21:56:55.609Z,33
2019-01-18T22:02:20.128Z,30.6
2019-01-18T22:07:44.025Z,29
2019-01-18T22:13:07.596Z,29.1
2019-01-18T22:18:29.689Z,26.1
2019-01-18T22:23:53.269Z,29.5
2019-01-18T22:29:17.370Z,29
2019-01-18T22:34:47.666Z,26.6
2019-01-18T22:40:05.290Z,28.9
2019-01-18T22:45:30.403Z,27.9
2019-01-18T22:50:53.545Z,27
2019-01-18T22:56:17.263Z,30.9
2019-01-18T23:01:40.778Z,27.4
2019-01-18T23:07:04.405Z,27.9
2019-01-18T23:12:28.149Z,28.5
2019-01-18T23:17:52.893Z,28.5
2019-01-18T23:23:16.565Z,26.6
2019-01-18T23:28:41.155Z,21.5
2019-01-18T23:34:06.389Z,25.9
2019-01-18T23:39:30.011Z,24.799999
2019-01-18T23:44:54.043Z,30.200001
2019-01-18T23:50:26.277Z,21.299999
2019-01-18T23:55:49.784Z,26.5
